createdAt,value
2023-05-10T00:00:02.166Z,3.45
2023-05-10T00:02:28.678Z,3.10
2023-05-10T00:04:55.150Z,3.72
2023-05-10T00:07:21.729Z,4.53
2023-05-10T00:09:48.185Z,4.00
2023-05-10T00:12:14.583Z,5.78
2023-05-10T00:14:41.051Z,3.40
2023-05-10T00:17:07.439Z,3.67
2023-05-10T00:19:33.931Z,3.85
2023-05-10T00:22:00.326Z,3.67
2023-05-10T00:24:26.933Z,3.70
2023-05-10T00:26:53.393Z,3.35
2023-05-10T00:29:20.566Z,3.83
2023-05-10T00:31:47.119Z,4.07
2023-05-10T00:34:13.658Z,5.15
2023-05-10T00:36:40.133Z,4.70
2023-05-10T00:39:07.014Z,3.30
2023-05-10T00:41:33.662Z,9.18
2023-05-10T00:44:00.217Z,5.70
2023-05-10T00:46:26.972Z,3.45
2023-05-10T00:48:53.664Z,3.17
2023-05-10T00:51:20.530Z,3.53
2023-05-10T00:53:47.305Z,5.65
2023-05-10T00:56:14.086Z,3.50
2023-05-10T00:58:40.981Z,2.97
2023-05-10T01:01:08.622Z,4.55
2023-05-10T01:03:35.661Z,4.40
2023-05-10T01:06:02.504Z,4.43
2023-05-10T01:08:29.849Z,3.13
2023-05-10T01:10:56.464Z,4.18
2023-05-10T01:13:40.470Z,3.63
2023-05-10T01:16:07.809Z,5.35
2023-05-10T01:18:37.400Z,4.53
2023-05-10T01:21:16.177Z,4.43
2023-05-10T01:24:03.594Z,4.43
2023-05-10T01:26:36.420Z,5.28
2023-05-10T01:29:25.657Z,3.45
2023-05-10T01:32:10.802Z,3.67
2023-05-10T01:34:46.175Z,6.60
2023-05-10T01:37:21.306Z,3.35
2023-05-10T01:40:07.353Z,5.93
2023-05-10T01:42:42.510Z,3.72
2023-05-10T01:45:20.844Z,2.83
2023-05-10T01:48:03.191Z,5.03
2023-05-10T01:53:03.339Z,3.42
2023-05-10T01:55:33.120Z,3.97
2023-05-10T01:58:07.115Z,4.20
2023-05-10T02:00:35.366Z,3.72
2023-05-10T02:03:07.456Z,5.55
2023-05-10T02:05:36.342Z,8.57
2023-05-10T02:08:06.810Z,4.15
2023-05-10T02:10:36.166Z,5.28
2023-05-10T02:13:04.213Z,4.07
2023-05-10T02:15:32.052Z,4.95
2023-05-10T02:18:01.070Z,4.10
2023-05-10T02:20:28.203Z,4.82
2023-05-10T02:22:56.831Z,4.38
2023-05-10T02:25:25.004Z,4.70
2023-05-10T02:27:55.072Z,5.35
2023-05-10T02:30:23.556Z,4.60
2023-05-10T02:32:51.539Z,5.15
2023-05-10T02:35:18.511Z,4.43
2023-05-10T02:37:46.190Z,4.32
2023-05-10T02:40:13.833Z,5.97
2023-05-10T02:42:43.181Z,4.38
2023-05-10T02:45:14.235Z,5.13
2023-05-10T02:47:40.989Z,4.93
2023-05-10T02:50:08.278Z,5.25
2023-05-10T02:52:41.686Z,4.43
2023-05-10T02:55:10.838Z,5.47
2023-05-10T02:57:41.742Z,4.60
2023-05-10T03:00:09.440Z,5.65
2023-05-10T03:02:37.294Z,7.20
2023-05-10T03:05:04.399Z,5.45
2023-05-10T03:07:30.924Z,4.80
2023-05-10T03:09:57.703Z,5.78
2023-05-10T03:12:49.096Z,6.88
2023-05-10T03:15:27.731Z,5.03
2023-05-10T03:18:10.202Z,10.50
2023-05-10T03:20:42.348Z,5.65
2023-05-10T03:23:14.759Z,7.25
2023-05-10T03:25:42.110Z,6.38
2023-05-10T03:28:09.808Z,5.90
2023-05-10T03:30:37.505Z,7.53
2023-05-10T03:33:07.816Z,6.53
2023-05-10T03:35:34.895Z,6.53
2023-05-10T03:38:01.844Z,7.15
2023-05-10T03:40:33.053Z,10.88
2023-05-10T03:43:00.373Z,7.32
2023-05-10T03:45:27.434Z,7.07
2023-05-10T03:47:54.906Z,6.22
2023-05-10T03:50:21.928Z,5.75
2023-05-10T03:52:48.328Z,8.02
2023-05-10T03:55:14.794Z,8.95
2023-05-10T03:57:41.647Z,6.40
2023-05-10T04:00:09.115Z,5.80
2023-05-10T04:02:35.680Z,5.65
2023-05-10T04:05:02.719Z,7.55
2023-05-10T04:07:29.386Z,7.28
2023-05-10T04:09:55.845Z,6.70
2023-05-10T04:12:22.399Z,7.45
2023-05-10T04:14:48.817Z,11.98
2023-05-10T04:17:15.343Z,9.45
2023-05-10T04:19:41.792Z,7.47
2023-05-10T04:22:08.164Z,8.32
2023-05-10T04:24:34.739Z,8.52
2023-05-10T04:27:01.477Z,10.52
2023-05-10T04:29:28.032Z,9.82
2023-05-10T04:31:56.201Z,8.70
2023-05-10T04:34:22.666Z,9.85
2023-05-10T04:36:49.149Z,7.93
2023-05-10T04:39:15.664Z,8.38
2023-05-10T04:41:42.086Z,6.47
2023-05-10T04:44:08.502Z,8.60
2023-05-10T04:46:35.077Z,9.75
2023-05-10T04:49:02.022Z,9.50
2023-05-10T04:51:28.433Z,7.80
2023-05-10T04:54:05.328Z,9.43
2023-05-10T04:56:33.503Z,8.90
2023-05-10T04:59:00.035Z,8.90
2023-05-10T05:01:26.569Z,11.15
2023-05-10T05:03:54.068Z,9.48
2023-05-10T05:06:21.903Z,8.95
2023-05-10T05:08:50.359Z,11.52
2023-05-10T05:11:17.946Z,13.15
2023-05-10T05:13:44.897Z,11.05
2023-05-10T05:16:12.276Z,11.65
2023-05-10T05:18:39.216Z,12.10
2023-05-10T05:21:16.048Z,9.52
2023-05-10T05:23:42.617Z,9.20
2023-05-10T05:26:09.193Z,9.63
2023-05-10T05:28:38.108Z,11.52
2023-05-10T05:31:06.513Z,11.73
2023-05-10T05:33:33.002Z,9.70
2023-05-10T05:36:02.336Z,10.43
2023-05-10T05:38:28.920Z,8.77
2023-05-10T05:40:55.401Z,9.70
2023-05-10T05:43:21.773Z,10.32
2023-05-10T05:45:48.371Z,9.90
2023-05-10T05:48:14.750Z,10.32
2023-05-10T05:50:41.179Z,9.90
2023-05-10T05:53:07.582Z,10.13
2023-05-10T05:55:35.011Z,10.02
2023-05-10T05:58:01.389Z,12.10
2023-05-10T06:00:28.016Z,10.65
2023-05-10T06:02:54.616Z,10.10
2023-05-10T06:05:21.897Z,11.00
2023-05-10T06:07:49.636Z,9.00
2023-05-10T06:10:16.249Z,9.68
2023-05-10T06:12:42.792Z,10.30
2023-05-10T06:15:10.596Z,10.57
2023-05-10T06:17:37.010Z,11.63
2023-05-10T06:20:03.952Z,10.82
2023-05-10T06:22:30.585Z,10.85
2023-05-10T06:24:57.116Z,9.52
2023-05-10T06:27:24.071Z,10.75
2023-05-10T06:29:52.272Z,8.73
2023-05-10T06:32:23.026Z,12.68
2023-05-10T06:34:49.416Z,10.10
2023-05-10T06:37:15.922Z,11.52
2023-05-10T06:39:42.351Z,11.70
2023-05-10T06:42:09.045Z,11.98
2023-05-10T06:44:35.751Z,10.35
2023-05-10T06:47:02.140Z,8.60
2023-05-10T06:49:28.600Z,10.55
2023-05-10T06:51:56.580Z,12.75
2023-05-10T06:54:24.007Z,10.95
2023-05-10T06:56:50.400Z,11.68
2023-05-10T06:59:17.652Z,10.35
2023-05-10T07:01:44.216Z,9.63
2023-05-10T07:04:10.915Z,11.93
2023-05-10T07:06:37.559Z,11.27
2023-05-10T07:09:04.067Z,12.45
2023-05-10T07:11:30.443Z,11.40
2023-05-10T07:13:57.005Z,10.88
2023-05-10T07:16:23.500Z,11.50
2023-05-10T07:18:51.304Z,10.25
2023-05-10T07:21:17.762Z,9.65
2023-05-10T07:23:45.258Z,10.82
2023-05-10T07:26:12.497Z,12.18
2023-05-10T07:28:39.122Z,10.52
2023-05-10T07:31:05.772Z,9.38
2023-05-10T07:33:33.330Z,10.52
2023-05-10T07:35:59.750Z,3.03
2023-05-10T07:38:26.100Z,2.75
2023-05-10T07:40:52.551Z,1.55
2023-05-10T07:43:18.905Z,3.28
2023-05-10T07:45:45.309Z,1.90
2023-05-10T07:48:12.260Z,0.98
2023-05-10T07:50:38.733Z,1.00
2023-05-10T07:53:05.077Z,0.82
2023-05-10T07:55:31.502Z,0.60
2023-05-10T07:57:58.113Z,0.50
2023-05-10T08:00:24.461Z,0.60
2023-05-10T08:02:50.891Z,0.90
2023-05-10T08:05:17.663Z,0.60
2023-05-10T08:07:44.230Z,0.98
2023-05-10T08:10:12.254Z,0.60
2023-05-10T08:12:39.319Z,0.75
2023-05-10T08:15:06.671Z,0.70
2023-05-10T08:17:33.591Z,1.77
2023-05-10T08:19:59.990Z,0.93
2023-05-10T08:22:26.982Z,1.05
2023-05-10T08:24:53.458Z,0.60
2023-05-10T08:27:19.811Z,0.75
2023-05-10T08:29:49.991Z,0.60
2023-05-10T08:32:17.084Z,0.70
2023-05-10T08:34:43.604Z,1.15
2023-05-10T08:37:11.409Z,1.15
2023-05-10T08:39:37.879Z,1.17
2023-05-10T08:42:05.844Z,0.90
2023-05-10T08:44:35.296Z,1.83
2023-05-10T08:47:05.463Z,0.80
2023-05-10T08:49:33.536Z,2.70
2023-05-10T08:52:06.212Z,1.92
2023-05-10T08:54:34.082Z,1.25
2023-05-10T08:57:00.850Z,1.67
2023-05-10T08:59:28.356Z,0.60
2023-05-10T09:01:58.294Z,1.05
2023-05-10T09:04:25.316Z,0.70
2023-05-10T09:06:51.849Z,0.73
2023-05-10T09:09:19.257Z,2.60
2023-05-10T09:11:46.120Z,1.10
2023-05-10T09:14:13.532Z,0.57
2023-05-10T09:16:40.876Z,1.17
2023-05-10T09:19:08.337Z,1.95
2023-05-10T09:21:39.089Z,1.10
2023-05-10T09:24:07.623Z,1.20
2023-05-10T09:26:36.380Z,1.13
2023-05-10T09:29:03.881Z,2.40
2023-05-10T09:31:55.806Z,1.40
2023-05-10T09:34:30.414Z,1.60
2023-05-10T09:36:59.209Z,1.20
2023-05-10T09:39:32.887Z,1.20
2023-05-10T09:42:04.777Z,1.33
2023-05-10T09:44:32.174Z,1.33
2023-05-10T09:46:59.434Z,1.23
2023-05-10T09:49:26.149Z,1.25
2023-05-10T09:52:02.970Z,1.10
2023-05-10T09:54:29.395Z,0.90
2023-05-10T09:56:56.097Z,1.08
2023-05-10T09:59:22.506Z,0.60
2023-05-10T10:01:52.464Z,0.80
2023-05-10T10:04:21.381Z,1.30
2023-05-10T10:06:48.001Z,1.08
2023-05-10T10:09:14.964Z,1.10
2023-05-10T10:11:42.366Z,1.50
2023-05-10T10:14:08.953Z,1.50
2023-05-10T10:16:35.983Z,1.17
2023-05-10T10:19:02.683Z,0.95
2023-05-10T10:21:29.313Z,0.60
2023-05-10T10:23:56.141Z,0.75
2023-05-10T10:26:23.517Z,2.47
2023-05-10T10:29:02.531Z,0.82
2023-05-10T10:31:37.995Z,0.95
2023-05-10T10:34:07.941Z,2.50
2023-05-10T10:36:41.822Z,1.23
2023-05-10T10:39:11.640Z,3.80
2023-05-10T10:41:59.625Z,1.42
2023-05-10T10:44:34.216Z,0.55
2023-05-10T10:47:30.971Z,0.63
2023-05-10T10:50:06.520Z,0.65
2023-05-10T10:52:46.114Z,1.35
2023-05-10T10:55:15.497Z,1.00
2023-05-10T10:57:42.571Z,2.35
2023-05-10T11:00:22.649Z,0.80
2023-05-10T11:02:50.603Z,1.30
2023-05-10T11:05:40.460Z,0.70
2023-05-10T11:08:28.706Z,1.40
2023-05-10T11:11:00.958Z,0.70
2023-05-10T11:13:51.135Z,2.60
2023-05-10T11:16:25.262Z,1.38
2023-05-10T11:18:59.419Z,0.63
2023-05-10T11:21:26.327Z,0.65
2023-05-10T11:23:57.723Z,0.80
2023-05-10T11:26:27.013Z,0.60
2023-05-10T11:28:59.365Z,1.80
2023-05-10T11:31:27.987Z,0.75
2023-05-10T11:33:56.661Z,0.77
2023-05-10T11:36:26.923Z,0.55
2023-05-10T11:38:54.484Z,1.40
2023-05-10T11:41:24.733Z,0.63
2023-05-10T11:43:52.733Z,0.80
2023-05-10T11:46:23.835Z,2.88
2023-05-10T11:48:52.481Z,0.60
2023-05-10T11:51:23.945Z,1.50
2023-05-10T11:53:53.437Z,1.20
2023-05-10T11:56:21.593Z,0.73
2023-05-10T11:58:57.656Z,0.57
2023-05-10T12:01:25.889Z,2.78
2023-05-10T12:03:54.651Z,0.95
2023-05-10T12:06:22.218Z,0.75
2023-05-10T12:08:53.424Z,0.75
2023-05-10T12:11:21.844Z,0.80
2023-05-10T12:13:48.924Z,1.08
2023-05-10T12:16:17.256Z,0.75
2023-05-10T12:18:43.974Z,0.80
2023-05-10T12:21:11.765Z,5.97
2023-05-10T12:23:42.125Z,0.85
2023-05-10T12:26:11.760Z,1.15
2023-05-10T12:28:39.378Z,0.75
2023-05-10T12:31:07.080Z,0.88
2023-05-10T12:33:43.924Z,2.30
2023-05-10T12:36:12.415Z,1.48
2023-05-10T12:38:49.521Z,1.75
2023-05-10T12:41:18.287Z,0.60
2023-05-10T12:43:46.406Z,0.65
2023-05-10T12:46:15.116Z,2.30
2023-05-10T12:48:43.388Z,0.60
2023-05-10T12:51:12.635Z,2.78
2023-05-10T12:53:41.434Z,1.65
2023-05-10T12:56:08.882Z,1.40
2023-05-10T12:58:36.344Z,1.45
2023-05-10T13:01:03.248Z,1.73
2023-05-10T13:03:29.835Z,1.27
2023-05-10T13:05:56.239Z,2.15
2023-05-10T13:08:22.643Z,3.47
2023-05-10T13:10:49.394Z,1.67
2023-05-10T13:13:16.458Z,3.17
2023-05-10T13:15:42.915Z,3.08
2023-05-10T13:18:09.352Z,1.83
2023-05-10T13:20:35.975Z,1.30
2023-05-10T13:23:03.480Z,2.28
2023-05-10T13:25:30.018Z,2.95
2023-05-10T13:27:56.444Z,1.50
2023-05-10T13:30:23.066Z,0.73
2023-05-10T13:32:49.513Z,2.05
2023-05-10T13:35:16.439Z,1.85
2023-05-10T13:37:42.806Z,1.52
2023-05-10T13:40:09.452Z,3.35
2023-05-10T13:42:35.837Z,2.45
2023-05-10T13:45:05.415Z,3.28
2023-05-10T13:47:31.945Z,1.92
2023-05-10T13:49:58.706Z,2.08
2023-05-10T13:52:25.370Z,1.15
2023-05-10T13:54:55.713Z,0.70
2023-05-10T13:57:22.441Z,1.05
2023-05-10T13:59:49.060Z,2.05
2023-05-10T14:02:15.560Z,3.53
2023-05-10T14:04:42.096Z,2.63
2023-05-10T14:07:08.880Z,1.25
2023-05-10T14:09:35.280Z,1.20
2023-05-10T14:12:01.785Z,5.70
2023-05-10T14:14:30.082Z,2.28
2023-05-10T14:16:56.875Z,7.15
2023-05-10T14:19:23.486Z,4.30
2023-05-10T14:21:49.909Z,2.38
2023-05-10T14:24:16.342Z,2.63
2023-05-10T14:26:42.690Z,3.25
2023-05-10T14:29:11.504Z,1.42
2023-05-10T14:31:38.836Z,1.60
2023-05-10T14:34:05.382Z,3.03
2023-05-10T14:36:32.710Z,1.17
2023-05-10T14:38:59.164Z,3.90
2023-05-10T14:41:25.712Z,2.13
2023-05-10T14:43:52.328Z,1.27
2023-05-10T14:46:19.202Z,2.75
2023-05-10T14:48:45.735Z,2.38
2023-05-10T14:51:12.273Z,2.03
2023-05-10T14:53:38.631Z,3.88
2023-05-10T14:56:05.212Z,2.08
2023-05-10T14:58:33.953Z,1.40
2023-05-10T15:01:00.644Z,1.75
2023-05-10T15:03:27.689Z,3.80
2023-05-10T15:05:54.652Z,3.88
2023-05-10T15:08:21.116Z,1.98
2023-05-10T15:10:47.767Z,2.03
2023-05-10T15:13:14.170Z,2.00
2023-05-10T15:15:40.804Z,1.92
2023-05-10T15:18:07.444Z,1.42
2023-05-10T15:20:33.951Z,2.55
2023-05-10T15:23:00.494Z,3.17
2023-05-10T15:25:27.226Z,3.33
2023-05-10T15:27:53.654Z,1.40
2023-05-10T15:30:20.728Z,2.17
2023-05-10T15:32:48.912Z,2.63
2023-05-10T15:35:18.898Z,1.45
2023-05-10T15:37:45.629Z,1.42
2023-05-10T15:40:12.424Z,1.67
2023-05-10T15:42:38.933Z,5.53
2023-05-10T15:45:06.013Z,5.65
2023-05-10T15:47:32.628Z,2.45
2023-05-10T15:49:59.165Z,4.50
2023-05-10T15:52:25.546Z,2.00
2023-05-10T15:54:51.938Z,1.92
2023-05-10T15:57:18.367Z,2.78
2023-05-10T15:59:45.832Z,3.00
2023-05-10T16:02:12.454Z,2.75
2023-05-10T16:04:39.080Z,1.70
2023-05-10T16:07:05.709Z,3.55
2023-05-10T16:09:32.059Z,3.05
2023-05-10T16:11:58.487Z,4.53
2023-05-10T16:14:24.940Z,2.58
2023-05-10T16:16:51.663Z,2.65
2023-05-10T16:19:18.423Z,4.75
2023-05-10T16:21:45.124Z,5.38
2023-05-10T16:24:12.034Z,53.80
2023-05-10T16:26:40.972Z,40.75
2023-05-10T16:29:08.696Z,24.73
2023-05-10T16:31:35.414Z,7.75
2023-05-10T16:34:02.180Z,14.95
2023-05-10T16:36:29.628Z,9.25
2023-05-10T16:38:56.542Z,8.55
2023-05-10T16:41:23.249Z,4.45
2023-05-10T16:43:50.282Z,3.67
2023-05-10T16:46:16.793Z,5.18
2023-05-10T16:48:43.472Z,6.55
2023-05-10T16:51:10.105Z,21.38
2023-05-10T16:53:36.619Z,10.70
2023-05-10T16:56:03.607Z,3.65
2023-05-10T16:58:30.075Z,3.15
2023-05-10T17:00:56.502Z,4.35
2023-05-10T17:03:23.331Z,3.08
2023-05-10T17:05:49.896Z,4.55
2023-05-10T17:08:16.429Z,3.78
2023-05-10T17:10:43.053Z,5.68
2023-05-10T17:13:10.612Z,5.63
2023-05-10T17:15:37.962Z,4.93
2023-05-10T17:18:05.012Z,3.35
2023-05-10T17:20:31.603Z,4.22
2023-05-10T17:22:58.048Z,5.30
2023-05-10T17:25:24.467Z,4.60
2023-05-10T17:27:50.911Z,4.38
2023-05-10T17:30:22.403Z,6.88
2023-05-10T17:32:49.038Z,4.88
2023-05-10T17:35:15.953Z,5.93
2023-05-10T17:37:44.101Z,7.78
2023-05-10T17:40:11.418Z,5.03
2023-05-10T17:42:37.984Z,5.82
2023-05-10T17:45:04.862Z,6.65
2023-05-10T17:47:31.512Z,3.78
2023-05-10T17:49:58.064Z,6.32
2023-05-10T17:52:24.509Z,6.50
2023-05-10T17:54:51.139Z,3.83
2023-05-10T17:57:17.524Z,3.30
2023-05-10T17:59:44.016Z,2.60
2023-05-10T18:02:10.673Z,4.55
2023-05-10T18:04:43.000Z,3.53
2023-05-10T18:07:09.934Z,4.38
2023-05-10T18:09:36.309Z,4.97
2023-05-10T18:12:03.391Z,3.28
2023-05-10T18:14:40.074Z,7.85
2023-05-10T18:17:07.571Z,5.70
2023-05-10T18:19:34.189Z,3.65
2023-05-10T18:22:00.679Z,8.27
2023-05-10T18:24:38.421Z,2.25
2023-05-10T18:27:06.974Z,3.38
2023-05-10T18:29:33.417Z,6.40
2023-05-10T18:31:59.854Z,3.70
2023-05-10T18:34:26.809Z,3.60
2023-05-10T18:36:53.354Z,3.50
2023-05-10T18:39:19.988Z,4.30
2023-05-10T18:41:46.543Z,6.82
2023-05-10T18:44:13.047Z,8.75
2023-05-10T18:46:39.548Z,8.35
2023-05-10T18:49:08.268Z,5.65
2023-05-10T18:51:34.891Z,4.18
2023-05-10T18:54:01.390Z,6.28
2023-05-10T18:56:27.830Z,4.07
2023-05-10T18:58:54.396Z,4.88
2023-05-10T19:01:21.174Z,4.72
2023-05-10T19:03:47.667Z,4.97
2023-05-10T19:06:14.138Z,10.25
2023-05-10T19:08:40.561Z,7.97
2023-05-10T19:11:07.113Z,5.25
2023-05-10T19:13:33.970Z,8.57
2023-05-10T19:16:05.387Z,6.78
2023-05-10T19:18:33.677Z,8.13
2023-05-10T19:21:03.726Z,5.25
2023-05-10T19:23:34.397Z,10.45
2023-05-10T19:26:01.386Z,7.38
2023-05-10T19:28:28.042Z,5.55
2023-05-10T19:30:54.633Z,5.85
2023-05-10T19:33:21.343Z,4.80
2023-05-10T19:35:51.974Z,4.85
2023-05-10T19:38:25.139Z,5.07
2023-05-10T19:40:57.912Z,3.47
2023-05-10T19:43:28.824Z,4.05
2023-05-10T19:45:58.926Z,4.38
2023-05-10T19:48:25.780Z,3.65
2023-05-10T19:50:53.021Z,4.55
2023-05-10T19:53:19.520Z,12.07
2023-05-10T19:55:46.151Z,4.43
2023-05-10T19:58:12.571Z,4.22
2023-05-10T20:00:39.065Z,4.85
2023-05-10T20:03:07.014Z,4.10
2023-05-10T20:05:35.540Z,4.85
2023-05-10T20:08:01.995Z,4.32
2023-05-10T20:10:28.433Z,4.63
2023-05-10T20:12:54.953Z,3.63
2023-05-10T20:15:23.055Z,3.47
2023-05-10T20:17:52.049Z,3.92
2023-05-10T20:20:20.072Z,5.00
2023-05-10T20:22:47.929Z,4.00
2023-05-10T20:25:15.836Z,3.85
2023-05-10T20:27:42.487Z,3.10
2023-05-10T20:30:10.301Z,3.63
2023-05-10T20:32:37.833Z,3.00
2023-05-10T20:35:05.289Z,3.28
2023-05-10T20:37:31.818Z,20.80
2023-05-10T20:39:58.402Z,3.67
2023-05-10T20:42:24.947Z,4.18
2023-05-10T20:44:51.604Z,4.55
2023-05-10T20:47:18.256Z,3.22
2023-05-10T20:49:44.708Z,4.00
2023-05-10T20:52:11.550Z,3.22
2023-05-10T20:54:37.969Z,3.85
2023-05-10T20:57:04.501Z,4.50
2023-05-10T20:59:31.068Z,4.47
2023-05-10T21:01:58.125Z,3.83
2023-05-10T21:04:25.663Z,4.60
2023-05-10T21:06:53.005Z,3.30
2023-05-10T21:09:19.441Z,3.80
2023-05-10T21:11:46.012Z,3.10
2023-05-10T21:14:12.542Z,3.70
2023-05-10T21:16:39.092Z,4.95
2023-05-10T21:19:07.081Z,4.15
2023-05-10T21:21:33.825Z,3.67
2023-05-10T21:24:00.246Z,2.67
2023-05-10T21:26:26.821Z,3.05
2023-05-10T21:28:53.374Z,3.53
2023-05-10T21:31:20.134Z,3.38
2023-05-10T21:33:46.602Z,4.05
2023-05-10T21:36:13.102Z,4.28
2023-05-10T21:38:40.328Z,3.70
2023-05-10T21:41:07.733Z,13.20
2023-05-10T21:43:34.148Z,4.45
2023-05-10T21:46:00.972Z,5.20
2023-05-10T21:48:27.354Z,3.67
2023-05-10T21:50:53.715Z,4.70
2023-05-10T21:53:20.301Z,2.78
2023-05-10T21:55:46.825Z,3.00
2023-05-10T21:58:13.366Z,3.70
2023-05-10T22:00:39.978Z,3.03
2023-05-10T22:03:06.620Z,3.75
2023-05-10T22:05:33.298Z,3.55
2023-05-10T22:08:00.199Z,3.35
2023-05-10T22:10:26.661Z,3.10
2023-05-10T22:12:53.125Z,3.05
2023-05-10T22:15:19.535Z,4.75
2023-05-10T22:17:45.956Z,3.65
2023-05-10T22:20:12.720Z,4.30
2023-05-10T22:22:39.507Z,3.63
2023-05-10T22:25:07.469Z,4.03
2023-05-10T22:27:34.623Z,4.47
2023-05-10T22:30:01.513Z,3.67
2023-05-10T22:32:28.337Z,4.53
2023-05-10T22:34:54.926Z,4.07
2023-05-10T22:37:21.411Z,7.93
2023-05-10T22:39:48.819Z,7.60
2023-05-10T22:42:15.856Z,5.40
2023-05-10T22:44:43.096Z,5.07
2023-05-10T22:47:09.762Z,4.68
2023-05-10T22:49:36.440Z,4.32
2023-05-10T22:52:03.007Z,4.53
2023-05-10T22:54:29.451Z,4.10
2023-05-10T22:56:56.456Z,4.97
2023-05-10T22:59:23.237Z,4.93
2023-05-10T23:01:49.738Z,4.22
2023-05-10T23:04:16.167Z,3.42
2023-05-10T23:06:42.596Z,5.32
2023-05-10T23:09:09.719Z,5.28
2023-05-10T23:11:36.352Z,4.40
2023-05-10T23:14:05.832Z,4.47
2023-05-10T23:16:32.663Z,5.07
2023-05-10T23:18:59.259Z,3.90
2023-05-10T23:21:25.728Z,3.65
2023-05-10T23:23:52.408Z,6.15
2023-05-10T23:26:18.984Z,4.30
2023-05-10T23:28:45.468Z,7.32
2023-05-10T23:31:11.898Z,3.03
2023-05-10T23:33:38.326Z,6.85
2023-05-10T23:36:05.062Z,3.35
2023-05-10T23:38:31.556Z,4.22
2023-05-10T23:40:58.061Z,3.53
2023-05-10T23:43:25.281Z,4.40
2023-05-10T23:45:56.586Z,3.60
2023-05-10T23:48:23.495Z,3.60
2023-05-10T23:50:50.058Z,3.53
2023-05-10T23:53:16.709Z,2.97
2023-05-10T23:55:43.443Z,4.63
2023-05-10T23:58:09.908Z,5.05
